sensor_id;sensor_type;location;lat;lon;timestamp;P1;durP1;ratioP1;P2;durP2;ratioP2
26824;SDS011;14402;48.178;11.566;2022-09-09T00:00:31;1.3;;;0.8;;
26824;SDS011;14402;48.178;11.566;2022-09-09T00:00:59;1.3;;;0.8;;
26824;SDS011;14402;48.178;11.566;2022-09-09T00:01:28;1.5;;;0.9;;
26824;SDS011;14402;48.178;11.566;2022-09-09T00:01:59;1.8;;;0.9;;
26824;SDS011;14402;48.178;11.566;2022-09-09T00:02:28;1.8;;;0.9;;
26824;SDS011;14402;48.178;11.566;2022-09-09T00:03:00;1.8;;;0.9;;
26824;SDS011;14402;48.178;11.566;2022-09-09T00:03:30;1.8;;;1.0;;
26824;SDS011;14402;48.178;11.566;2022-09-09T00:03:59;1.9;;;1.1;;
26824;SDS011;14402;48.178;11.566;2022-09-09T00:04:29;1.9;;;1.1;;
26824;SDS011;14402;48.178;11.566;2022-09-09T00:04:59;1.9;;;1.1;;
26824;SDS011;14402;48.178;11.566;2022-09-09T00:05:29;1.9;;;1.1;;
26824;SDS011;14402;48.178;11.566;2022-09-09T00:05:59;1.9;;;1.1;;
26824;SDS011;14402;48.178;11.566;2022-09-09T00:06:29;1.9;;;1.1;;
26824;SDS011;14402;48.178;11.566;2022-09-09T00:07:00;1.9;;;1.1;;
26824;SDS011;14402;48.178;11.566;2022-09-09T00:07:33;1.9;;;1.0;;
26824;SDS011;14402;48.178;11.566;2022-09-09T00:07:59;1.9;;;0.8;;
26824;SDS011;14402;48.178;11.566;2022-09-09T00:08:31;1.9;;;0.8;;
26824;SDS011;14402;48.178;11.566;2022-09-09T00:09:00;1.9;;;0.8;;
26824;SDS011;14402;48.178;11.566;2022-09-09T00:09:29;1.6;;;0.8;;
26824;SDS011;14402;48.178;11.566;2022-09-09T00:10:00;1.3;;;0.8;;
26824;SDS011;14402;48.178;11.566;2022-09-09T00:10:29;1.3;;;0.8;;
26824;SDS011;14402;48.178;11.566;2022-09-09T00:10:59;1.3;;;0.8;;
26824;SDS011;14402;48.178;11.566;2022-09-09T00:11:30;1.5;;;0.8;;
26824;SDS011;14402;48.178;11.566;2022-09-09T00:12:00;1.8;;;0.8;;
26824;SDS011;14402;48.178;11.566;2022-09-09T00:12:33;1.8;;;0.8;;
26824;SDS011;14402;48.178;11.566;2022-09-09T00:13:01;1.8;;;0.8;;
26824;SDS011;14402;48.178;11.566;2022-09-09T00:13:30;1.6;;;0.8;;
26824;SDS011;14402;48.178;11.566;2022-09-09T00:14:00;1.5;;;0.8;;
26824;SDS011;14402;48.178;11.566;2022-09-09T00:14:33;1.5;;;0.8;;
26824;SDS011;14402;48.178;11.566;2022-09-09T00:15:02;1.5;;;0.8;;
26824;SDS011;14402;48.178;11.566;2022-09-09T00:15:31;1.8;;;0.9;;
26824;SDS011;14402;48.178;11.566;2022-09-09T00:16:02;2.1;;;0.9;;
26824;SDS011;14402;48.178;11.566;2022-09-09T00:16:31;2.1;;;0.9;;
26824;SDS011;14402;48.178;11.566;2022-09-09T00:17:01;2.1;;;0.9;;
26824;SDS011;14402;48.178;11.566;2022-09-09T00:17:33;1.6;;;0.9;;
26824;SDS011;14402;48.178;11.566;2022-09-09T00:18:01;1.2;;;0.8;;
26824;SDS011;14402;48.178;11.566;2022-09-09T00:18:44;1.2;;;0.8;;
26824;SDS011;14402;48.178;11.566;2022-09-09T00:19:02;1.2;;;0.8;;
26824;SDS011;14402;48.178;11.566;2022-09-09T00:19:32;1.7;;;0.8;;
26824;SDS011;14402;48.178;11.566;2022-09-09T00:20:01;2.2;;;0.8;;
26824;SDS011;14402;48.178;11.566;2022-09-09T00:20:32;2.2;;;0.8;;
26824;SDS011;14402;48.178;11.566;2022-09-09T00:21:02;2.2;;;0.8;;
26824;SDS011;14402;48.178;11.566;2022-09-09T00:21:32;2.7;;;0.8;;
26824;SDS011;14402;48.178;11.566;2022-09-09T00:22:05;3.1;;;0.8;;
26824;SDS011;14402;48.178;11.566;2022-09-09T00:22:31;3.1;;;0.8;;
26824;SDS011;14402;48.178;11.566;2022-09-09T00:23:03;3.1;;;0.8;;
26824;SDS011;14402;48.178;11.566;2022-09-09T00:23:32;2.2;;;0.9;;
26824;SDS011;14402;48.178;11.566;2022-09-09T00:24:07;1.4;;;1.0;;
26824;SDS011;14402;48.178;11.566;2022-09-09T00:24:32;1.4;;;1.0;;
26824;SDS011;14402;48.178;11.566;2022-09-09T00:25:04;1.4;;;1.0;;
26824;SDS011;14402;48.178;11.566;2022-09-09T00:25:33;1.5;;;0.9;;
26824;SDS011;14402;48.178;11.566;2022-09-09T00:26:04;1.6;;;0.8;;
26824;SDS011;14402;48.178;11.566;2022-09-09T00:26:33;1.6;;;0.8;;
26824;SDS011;14402;48.178;11.566;2022-09-09T00:27:04;1.6;;;0.8;;
26824;SDS011;14402;48.178;11.566;2022-09-09T00:27:34;3.9;;;0.9;;
26824;SDS011;14402;48.178;11.566;2022-09-09T00:28:02;6.2;;;0.9;;
26824;SDS011;14402;48.178;11.566;2022-09-09T00:28:33;6.2;;;0.9;;
26824;SDS011;14402;48.178;11.566;2022-09-09T00:29:03;6.2;;;0.9;;
26824;SDS011;14402;48.178;11.566;2022-09-09T00:29:33;4.0;;;0.9;;
26824;SDS011;14402;48.178;11.566;2022-09-09T00:30:12;1.9;;;0.8;;
26824;SDS011;14402;48.178;11.566;2022-09-09T00:30:34;1.9;;;0.8;;
26824;SDS011;14402;48.178;11.566;2022-09-09T00:31:07;1.9;;;0.8;;
26824;SDS011;14402;48.178;11.566;2022-09-09T00:31:33;2.0;;;0.8;;
26824;SDS011;14402;48.178;11.566;2022-09-09T00:32:05;2.2;;;0.8;;
26824;SDS011;14402;48.178;11.566;2022-09-09T00:32:33;2.2;;;0.8;;
26824;SDS011;14402;48.178;11.566;2022-09-09T00:33:08;2.2;;;0.8;;
26824;SDS011;14402;48.178;11.566;2022-09-09T00:33:33;1.8;;;0.8;;
26824;SDS011;14402;48.178;11.566;2022-09-09T00:34:05;1.4;;;0.7;;
26824;SDS011;14402;48.178;11.566;2022-09-09T00:34:33;1.4;;;0.7;;
26824;SDS011;14402;48.178;11.566;2022-09-09T00:35:10;1.4;;;0.7;;
26824;SDS011;14402;48.178;11.566;2022-09-09T00:35:34;1.8;;;0.8;;
26824;SDS011;14402;48.178;11.566;2022-09-09T00:36:04;2.1;;;0.8;;
26824;SDS011;14402;48.178;11.566;2022-09-09T00:36:34;2.1;;;0.8;;
26824;SDS011;14402;48.178;11.566;2022-09-09T00:37:04;2.1;;;0.8;;
26824;SDS011;14402;48.178;11.566;2022-09-09T00:37:34;2.1;;;0.8;;
26824;SDS011;14402;48.178;11.566;2022-09-09T00:38:05;2.1;;;0.8;;
26824;SDS011;14402;48.178;11.566;2022-09-09T00:38:35;2.1;;;0.8;;
26824;SDS011;14402;48.178;11.566;2022-09-09T00:39:04;2.1;;;0.8;;
26824;SDS011;14402;48.178;11.566;2022-09-09T00:39:36;2.0;;;0.9;;
26824;SDS011;14402;48.178;11.566;2022-09-09T00:40:07;1.9;;;0.9;;
26824;SDS011;14402;48.178;11.566;2022-09-09T00:40:35;1.9;;;0.9;;
26824;SDS011;14402;48.178;11.566;2022-09-09T00:41:05;1.9;;;0.9;;
26824;SDS011;14402;48.178;11.566;2022-09-09T00:41:38;2.2;;;0.9;;
26824;SDS011;14402;48.178;11.566;2022-09-09T00:42:09;2.4;;;0.8;;
26824;SDS011;14402;48.178;11.566;2022-09-09T00:42:36;2.4;;;0.8;;
26824;SDS011;14402;48.178;11.566;2022-09-09T00:43:09;2.4;;;0.8;;
26824;SDS011;14402;48.178;11.566;2022-09-09T00:43:35;2.1;;;0.8;;
26824;SDS011;14402;48.178;11.566;2022-09-09T00:44:10;1.8;;;0.7;;
26824;SDS011;14402;48.178;11.566;2022-09-09T00:44:36;1.8;;;0.7;;
26824;SDS011;14402;48.178;11.566;2022-09-09T00:45:09;1.8;;;0.7;;
26824;SDS011;14402;48.178;11.566;2022-09-09T00:45:42;1.4;;;0.7;;
26824;SDS011;14402;48.178;11.566;2022-09-09T00:46:10;1.0;;;0.7;;
26824;SDS011;14402;48.178;11.566;2022-09-09T00:46:54;1.0;;;0.7;;
26824;SDS011;14402;48.178;11.566;2022-09-09T00:47:12;1.0;;;0.7;;
26824;SDS011;14402;48.178;11.566;2022-09-09T00:47:39;1.0;;;0.7;;
26824;SDS011;14402;48.178;11.566;2022-09-09T00:48:06;1.1;;;0.7;;
26824;SDS011;14402;48.178;11.566;2022-09-09T00:48:38;1.1;;;0.7;;
26824;SDS011;14402;48.178;11.566;2022-09-09T00:49:08;1.1;;;0.7;;
26824;SDS011;14402;48.178;11.566;2022-09-09T00:49:39;1.7;;;0.8;;
26824;SDS011;14402;48.178;11.566;2022-09-09T00:50:10;2.2;;;0.8;;
26824;SDS011;14402;48.178;11.566;2022-09-09T00:50:39;2.2;;;0.8;;
26824;SDS011;14402;48.178;11.566;2022-09-09T00:51:08;2.2;;;0.8;;
26824;SDS011;14402;48.178;11.566;2022-09-09T00:51:39;2.6;;;0.9;;
26824;SDS011;14402;48.178;11.566;2022-09-09T00:52:11;3.0;;;0.9;;
26824;SDS011;14402;48.178;11.566;2022-09-09T00:52:39;3.0;;;0.9;;
26824;SDS011;14402;48.178;11.566;2022-09-09T00:53:11;3.0;;;0.9;;
26824;SDS011;14402;48.178;11.566;2022-09-09T00:53:38;2.8;;;0.9;;
26824;SDS011;14402;48.178;11.566;2022-09-09T00:54:10;2.7;;;0.9;;
26824;SDS011;14402;48.178;11.566;2022-09-09T00:54:40;2.7;;;0.9;;
26824;SDS011;14402;48.178;11.566;2022-09-09T00:55:09;2.7;;;0.9;;
26824;SDS011;14402;48.178;11.566;2022-09-09T00:55:39;2.4;;;0.8;;
26824;SDS011;14402;48.178;11.566;2022-09-09T00:56:09;2.1;;;0.7;;
26824;SDS011;14402;48.178;11.566;2022-09-09T00:56:39;2.1;;;0.7;;
26824;SDS011;14402;48.178;11.566;2022-09-09T00:57:13;2.1;;;0.7;;
26824;SDS011;14402;48.178;11.566;2022-09-09T00:57:38;2.1;;;0.7;;
26824;SDS011;14402;48.178;11.566;2022-09-09T00:58:08;1.5;;;0.6;;
26824;SDS011;14402;48.178;11.566;2022-09-09T00:58:38;1.0;;;0.6;;
26824;SDS011;14402;48.178;11.566;2022-09-09T00:59:12;1.0;;;0.6;;
26824;SDS011;14402;48.178;11.566;2022-09-09T00:59:40;1.0;;;0.6;;
26824;SDS011;14402;48.178;11.566;2022-09-09T01:00:17;1.6;;;0.8;;
26824;SDS011;14402;48.178;11.566;2022-09-09T01:00:40;2.2;;;1.0;;
26824;SDS011;14402;48.178;11.566;2022-09-09T01:01:09;2.2;;;1.0;;
26824;SDS011;14402;48.178;11.566;2022-09-09T01:01:38;2.2;;;1.0;;
26824;SDS011;14402;48.178;11.566;2022-09-09T01:02:12;2.3;;;1.0;;
26824;SDS011;14402;48.178;11.566;2022-09-09T01:02:39;2.5;;;1.0;;
26824;SDS011;14402;48.178;11.566;2022-09-09T01:03:13;2.5;;;1.0;;
26824;SDS011;14402;48.178;11.566;2022-09-09T01:03:40;2.5;;;1.0;;
26824;SDS011;14402;48.178;11.566;2022-09-09T01:04:09;2.0;;;0.9;;
26824;SDS011;14402;48.178;11.566;2022-09-09T01:04:39;1.6;;;0.9;;
26824;SDS011;14402;48.178;11.566;2022-09-09T01:05:10;1.6;;;0.9;;
26824;SDS011;14402;48.178;11.566;2022-09-09T01:05:41;1.6;;;0.9;;
26824;SDS011;14402;48.178;11.566;2022-09-09T01:06:14;1.8;;;1.0;;
26824;SDS011;14402;48.178;11.566;2022-09-09T01:06:39;2.0;;;1.1;;
26824;SDS011;14402;48.178;11.566;2022-09-09T01:07:12;2.0;;;1.1;;
26824;SDS011;14402;48.178;11.566;2022-09-09T01:07:40;2.0;;;1.1;;
26824;SDS011;14402;48.178;11.566;2022-09-09T01:08:11;1.9;;;1.0;;
26824;SDS011;14402;48.178;11.566;2022-09-09T01:08:44;1.8;;;1.0;;
26824;SDS011;14402;48.178;11.566;2022-09-09T01:09:11;1.8;;;1.0;;
26824;SDS011;14402;48.178;11.566;2022-09-09T01:09:42;1.8;;;1.0;;
26824;SDS011;14402;48.178;11.566;2022-09-09T01:10:10;1.5;;;0.9;;
26824;SDS011;14402;48.178;11.566;2022-09-09T01:10:41;1.3;;;0.9;;
26824;SDS011;14402;48.178;11.566;2022-09-09T01:11:10;1.3;;;0.9;;
26824;SDS011;14402;48.178;11.566;2022-09-09T01:11:43;1.3;;;0.9;;
26824;SDS011;14402;48.178;11.566;2022-09-09T01:12:12;1.9;;;1.0;;
26824;SDS011;14402;48.178;11.566;2022-09-09T01:12:41;2.5;;;1.1;;
26824;SDS011;14402;48.178;11.566;2022-09-09T01:13:11;2.5;;;1.1;;
26824;SDS011;14402;48.178;11.566;2022-09-09T01:13:41;2.5;;;1.1;;
26824;SDS011;14402;48.178;11.566;2022-09-09T01:14:13;2.2;;;1.1;;
26824;SDS011;14402;48.178;11.566;2022-09-09T01:14:42;1.9;;;1.1;;
26824;SDS011;14402;48.178;11.566;2022-09-09T01:15:12;1.9;;;1.1;;
26824;SDS011;14402;48.178;11.566;2022-09-09T01:15:41;1.9;;;1.1;;
26824;SDS011;14402;48.178;11.566;2022-09-09T01:16:11;2.6;;;1.2;;
26824;SDS011;14402;48.178;11.566;2022-09-09T01:16:41;3.3;;;1.3;;
26824;SDS011;14402;48.178;11.566;2022-09-09T01:17:15;3.3;;;1.3;;
26824;SDS011;14402;48.178;11.566;2022-09-09T01:17:46;3.3;;;1.3;;
26824;SDS011;14402;48.178;11.566;2022-09-09T01:18:12;2.4;;;1.2;;
26824;SDS011;14402;48.178;11.566;2022-09-09T01:18:43;1.5;;;1.1;;
26824;SDS011;14402;48.178;11.566;2022-09-09T01:19:14;1.5;;;1.1;;
26824;SDS011;14402;48.178;11.566;2022-09-09T01:19:45;1.5;;;1.1;;
26824;SDS011;14402;48.178;11.566;2022-09-09T01:20:13;2.4;;;1.1;;
26824;SDS011;14402;48.178;11.566;2022-09-09T01:20:44;3.3;;;1.1;;
26824;SDS011;14402;48.178;11.566;2022-09-09T01:21:15;3.3;;;1.1;;
26824;SDS011;14402;48.178;11.566;2022-09-09T01:21:43;3.3;;;1.1;;
26824;SDS011;14402;48.178;11.566;2022-09-09T01:22:14;2.8;;;1.1;;
26824;SDS011;14402;48.178;11.566;2022-09-09T01:22:44;2.4;;;1.1;;
26824;SDS011;14402;48.178;11.566;2022-09-09T01:23:16;2.4;;;1.1;;
26824;SDS011;14402;48.178;11.566;2022-09-09T01:23:46;2.4;;;1.1;;
26824;SDS011;14402;48.178;11.566;2022-09-09T01:24:15;2.4;;;1.0;;
26824;SDS011;14402;48.178;11.566;2022-09-09T01:24:45;2.4;;;1.0;;
26824;SDS011;14402;48.178;11.566;2022-09-09T01:25:22;2.4;;;1.0;;
26824;SDS011;14402;48.178;11.566;2022-09-09T01:26:04;2.4;;;1.0;;
26824;SDS011;14402;48.178;11.566;2022-09-09T01:26:15;2.7;;;0.9;;
26824;SDS011;14402;48.178;11.566;2022-09-09T01:26:43;3.0;;;0.8;;
26824;SDS011;14402;48.178;11.566;2022-09-09T01:27:13;3.0;;;0.8;;
26824;SDS011;14402;48.178;11.566;2022-09-09T01:27:43;3.0;;;0.8;;
26824;SDS011;14402;48.178;11.566;2022-09-09T01:28:14;2.7;;;1.0;;
26824;SDS011;14402;48.178;11.566;2022-09-09T01:28:44;2.4;;;1.1;;
26824;SDS011;14402;48.178;11.566;2022-09-09T01:29:14;2.4;;;1.1;;
26824;SDS011;14402;48.178;11.566;2022-09-09T01:29:43;2.4;;;1.1;;
26824;SDS011;14402;48.178;11.566;2022-09-09T01:30:14;1.8;;;1.0;;
26824;SDS011;14402;48.178;11.566;2022-09-09T01:30:44;1.1;;;0.9;;
26824;SDS011;14402;48.178;11.566;2022-09-09T01:31:15;1.1;;;0.9;;
26824;SDS011;14402;48.178;11.566;2022-09-09T01:31:51;1.1;;;0.9;;
26824;SDS011;14402;48.178;11.566;2022-09-09T01:32:47;1.7;;;1.0;;
26824;SDS011;14402;48.178;11.566;2022-09-09T01:32:49;2.2;;;1.2;;
26824;SDS011;14402;48.178;11.566;2022-09-09T01:33:15;2.2;;;1.2;;
26824;SDS011;14402;48.178;11.566;2022-09-09T01:33:44;2.2;;;1.2;;
26824;SDS011;14402;48.178;11.566;2022-09-09T01:34:14;2.6;;;1.1;;
26824;SDS011;14402;48.178;11.566;2022-09-09T01:34:44;2.9;;;1.0;;
26824;SDS011;14402;48.178;11.566;2022-09-09T01:35:18;2.9;;;1.0;;
26824;SDS011;14402;48.178;11.566;2022-09-09T01:35:45;2.9;;;1.0;;
26824;SDS011;14402;48.178;11.566;2022-09-09T01:36:18;3.2;;;1.0;;
26824;SDS011;14402;48.178;11.566;2022-09-09T01:36:45;3.4;;;1.1;;
26824;SDS011;14402;48.178;11.566;2022-09-09T01:37:15;3.4;;;1.1;;
26824;SDS011;14402;48.178;11.566;2022-09-09T01:37:45;3.4;;;1.1;;
26824;SDS011;14402;48.178;11.566;2022-09-09T01:38:15;2.3;;;1.0;;
26824;SDS011;14402;48.178;11.566;2022-09-09T01:38:45;1.3;;;1.0;;
26824;SDS011;14402;48.178;11.566;2022-09-09T01:39:15;1.3;;;1.0;;
26824;SDS011;14402;48.178;11.566;2022-09-09T01:39:45;1.3;;;1.0;;
26824;SDS011;14402;48.178;11.566;2022-09-09T01:40:15;1.9;;;0.9;;
26824;SDS011;14402;48.178;11.566;2022-09-09T01:40:45;2.4;;;0.9;;
26824;SDS011;14402;48.178;11.566;2022-09-09T01:41:15;2.4;;;0.9;;
26824;SDS011;14402;48.178;11.566;2022-09-09T01:41:46;2.4;;;0.9;;
26824;SDS011;14402;48.178;11.566;2022-09-09T01:42:16;2.0;;;0.9;;
26824;SDS011;14402;48.178;11.566;2022-09-09T01:42:46;1.5;;;0.9;;
26824;SDS011;14402;48.178;11.566;2022-09-09T01:43:16;1.5;;;0.9;;
26824;SDS011;14402;48.178;11.566;2022-09-09T01:43:46;1.5;;;0.9;;
26824;SDS011;14402;48.178;11.566;2022-09-09T01:44:16;1.6;;;0.9;;
26824;SDS011;14402;48.178;11.566;2022-09-09T01:44:46;1.8;;;1.0;;
26824;SDS011;14402;48.178;11.566;2022-09-09T01:45:16;1.8;;;1.0;;
26824;SDS011;14402;48.178;11.566;2022-09-09T01:45:46;1.8;;;1.0;;
26824;SDS011;14402;48.178;11.566;2022-09-09T01:46:16;2.2;;;0.9;;
26824;SDS011;14402;48.178;11.566;2022-09-09T01:46:47;2.5;;;0.9;;
26824;SDS011;14402;48.178;11.566;2022-09-09T01:47:16;2.5;;;0.9;;
26824;SDS011;14402;48.178;11.566;2022-09-09T01:47:47;2.5;;;0.9;;
26824;SDS011;14402;48.178;11.566;2022-09-09T01:48:17;3.0;;;1.0;;
26824;SDS011;14402;48.178;11.566;2022-09-09T01:48:47;3.5;;;1.2;;
26824;SDS011;14402;48.178;11.566;2022-09-09T01:49:17;3.5;;;1.2;;
26824;SDS011;14402;48.178;11.566;2022-09-09T01:49:47;3.5;;;1.2;;
26824;SDS011;14402;48.178;11.566;2022-09-09T01:50:17;3.0;;;1.2;;
26824;SDS011;14402;48.178;11.566;2022-09-09T01:50:47;2.4;;;1.2;;
26824;SDS011;14402;48.178;11.566;2022-09-09T01:51:17;2.4;;;1.2;;
26824;SDS011;14402;48.178;11.566;2022-09-09T01:51:49;2.4;;;1.2;;
26824;SDS011;14402;48.178;11.566;2022-09-09T01:52:17;2.5;;;1.1;;
26824;SDS011;14402;48.178;11.566;2022-09-09T01:52:48;2.5;;;1.0;;
26824;SDS011;14402;48.178;11.566;2022-09-09T01:53:18;2.5;;;1.0;;
26824;SDS011;14402;48.178;11.566;2022-09-09T01:53:48;2.5;;;1.0;;
26824;SDS011;14402;48.178;11.566;2022-09-09T01:54:18;2.7;;;1.1;;
26824;SDS011;14402;48.178;11.566;2022-09-09T01:54:48;2.9;;;1.2;;
26824;SDS011;14402;48.178;11.566;2022-09-09T01:55:18;2.9;;;1.2;;
26824;SDS011;14402;48.178;11.566;2022-09-09T01:55:50;2.9;;;1.2;;
26824;SDS011;14402;48.178;11.566;2022-09-09T01:56:21;3.9;;;1.2;;
26824;SDS011;14402;48.178;11.566;2022-09-09T01:56:51;4.8;;;1.2;;
26824;SDS011;14402;48.178;11.566;2022-09-09T01:57:20;4.8;;;1.2;;
26824;SDS011;14402;48.178;11.566;2022-09-09T01:57:50;4.8;;;1.2;;
26824;SDS011;14402;48.178;11.566;2022-09-09T01:58:22;4.0;;;1.3;;
26824;SDS011;14402;48.178;11.566;2022-09-09T01:58:53;3.1;;;1.4;;
26824;SDS011;14402;48.178;11.566;2022-09-09T01:59:24;3.1;;;1.4;;
26824;SDS011;14402;48.178;11.566;2022-09-09T01:59:51;3.1;;;1.4;;
26824;SDS011;14402;48.178;11.566;2022-09-09T02:00:19;2.4;;;1.3;;
26824;SDS011;14402;48.178;11.566;2022-09-09T02:00:51;1.8;;;1.3;;
26824;SDS011;14402;48.178;11.566;2022-09-09T02:01:22;1.8;;;1.3;;
26824;SDS011;14402;48.178;11.566;2022-09-09T02:01:53;1.8;;;1.3;;
26824;SDS011;14402;48.178;11.566;2022-09-09T02:02:21;2.4;;;1.3;;
26824;SDS011;14402;48.178;11.566;2022-09-09T02:02:52;3.1;;;1.4;;
26824;SDS011;14402;48.178;11.566;2022-09-09T02:03:20;3.1;;;1.4;;
26824;SDS011;14402;48.178;11.566;2022-09-09T02:03:51;3.1;;;1.4;;
26824;SDS011;14402;48.178;11.566;2022-09-09T02:04:23;2.8;;;1.3;;
26824;SDS011;14402;48.178;11.566;2022-09-09T02:04:50;2.5;;;1.3;;
26824;SDS011;14402;48.178;11.566;2022-09-09T02:05:22;2.5;;;1.3;;
26824;SDS011;14402;48.178;11.566;2022-09-09T02:05:52;2.5;;;1.3;;
26824;SDS011;14402;48.178;11.566;2022-09-09T02:06:24;2.5;;;1.3;;
26824;SDS011;14402;48.178;11.566;2022-09-09T02:06:50;2.5;;;1.3;;
26824;SDS011;14402;48.178;11.566;2022-09-09T02:07:24;2.5;;;1.3;;
26824;SDS011;14402;48.178;11.566;2022-09-09T02:07:51;2.5;;;1.3;;
26824;SDS011;14402;48.178;11.566;2022-09-09T02:08:21;2.5;;;1.2;;
26824;SDS011;14402;48.178;11.566;2022-09-09T02:08:52;2.4;;;1.1;;
26824;SDS011;14402;48.178;11.566;2022-09-09T02:09:21;2.4;;;1.1;;
26824;SDS011;14402;48.178;11.566;2022-09-09T02:09:51;2.4;;;1.1;;
26824;SDS011;14402;48.178;11.566;2022-09-09T02:10:21;2.3;;;1.2;;
26824;SDS011;14402;48.178;11.566;2022-09-09T02:10:53;2.3;;;1.3;;
26824;SDS011;14402;48.178;11.566;2022-09-09T02:11:21;2.3;;;1.3;;
26824;SDS011;14402;48.178;11.566;2022-09-09T02:11:52;2.3;;;1.3;;
26824;SDS011;14402;48.178;11.566;2022-09-09T02:12:21;2.6;;;1.2;;
26824;SDS011;14402;48.178;11.566;2022-09-09T02:12:53;2.9;;;1.2;;
26824;SDS011;14402;48.178;11.566;2022-09-09T02:13:21;2.9;;;1.2;;
26824;SDS011;14402;48.178;11.566;2022-09-09T02:13:52;2.9;;;1.2;;
26824;SDS011;14402;48.178;11.566;2022-09-09T02:14:22;2.6;;;1.4;;
26824;SDS011;14402;48.178;11.566;2022-09-09T02:14:52;2.2;;;1.5;;
26824;SDS011;14402;48.178;11.566;2022-09-09T02:15:22;2.2;;;1.5;;
26824;SDS011;14402;48.178;11.566;2022-09-09T02:15:52;2.2;;;1.5;;
26824;SDS011;14402;48.178;11.566;2022-09-09T02:16:22;2.8;;;1.4;;
26824;SDS011;14402;48.178;11.566;2022-09-09T02:16:52;3.4;;;1.2;;
26824;SDS011;14402;48.178;11.566;2022-09-09T02:17:24;3.4;;;1.2;;
26824;SDS011;14402;48.178;11.566;2022-09-09T02:17:52;3.4;;;1.2;;
26824;SDS011;14402;48.178;11.566;2022-09-09T02:18:24;2.8;;;1.2;;
26824;SDS011;14402;48.178;11.566;2022-09-09T02:18:53;2.1;;;1.1;;
26824;SDS011;14402;48.178;11.566;2022-09-09T02:19:23;2.1;;;1.1;;
26824;SDS011;14402;48.178;11.566;2022-09-09T02:19:53;2.1;;;1.1;;
26824;SDS011;14402;48.178;11.566;2022-09-09T02:20:23;1.9;;;1.0;;
26824;SDS011;14402;48.178;11.566;2022-09-09T02:20:53;1.8;;;1.0;;
26824;SDS011;14402;48.178;11.566;2022-09-09T02:21:23;1.8;;;1.0;;
26824;SDS011;14402;48.178;11.566;2022-09-09T02:21:53;1.8;;;1.0;;
26824;SDS011;14402;48.178;11.566;2022-09-09T02:22:23;2.2;;;1.0;;
26824;SDS011;14402;48.178;11.566;2022-09-09T02:22:53;2.5;;;1.0;;
26824;SDS011;14402;48.178;11.566;2022-09-09T02:23:23;2.5;;;1.0;;
26824;SDS011;14402;48.178;11.566;2022-09-09T02:23:53;2.5;;;1.0;;
26824;SDS011;14402;48.178;11.566;2022-09-09T02:24:23;2.3;;;1.0;;
26824;SDS011;14402;48.178;11.566;2022-09-09T02:24:53;2.1;;;1.1;;
26824;SDS011;14402;48.178;11.566;2022-09-09T02:25:24;2.1;;;1.1;;
26824;SDS011;14402;48.178;11.566;2022-09-09T02:25:53;2.1;;;1.1;;
26824;SDS011;14402;48.178;11.566;2022-09-09T02:26:23;2.3;;;1.0;;
26824;SDS011;14402;48.178;11.566;2022-09-09T02:26:53;2.6;;;1.0;;
26824;SDS011;14402;48.178;11.566;2022-09-09T02:27:24;2.6;;;1.0;;
26824;SDS011;14402;48.178;11.566;2022-09-09T02:27:54;2.6;;;1.0;;
26824;SDS011;14402;48.178;11.566;2022-09-09T02:28:25;3.0;;;1.0;;
26824;SDS011;14402;48.178;11.566;2022-09-09T02:28:55;3.4;;;1.0;;
26824;SDS011;14402;48.178;11.566;2022-09-09T02:29:25;3.4;;;1.0;;
26824;SDS011;14402;48.178;11.566;2022-09-09T02:29:54;3.4;;;1.0;;
26824;SDS011;14402;48.178;11.566;2022-09-09T02:30:24;3.2;;;0.9;;
26824;SDS011;14402;48.178;11.566;2022-09-09T02:30:54;2.9;;;0.9;;
26824;SDS011;14402;48.178;11.566;2022-09-09T02:31:24;2.9;;;0.9;;
26824;SDS011;14402;48.178;11.566;2022-09-09T02:31:54;2.9;;;0.9;;
26824;SDS011;14402;48.178;11.566;2022-09-09T02:32:24;3.1;;;0.9;;
26824;SDS011;14402;48.178;11.566;2022-09-09T02:32:55;3.2;;;1.0;;
26824;SDS011;14402;48.178;11.566;2022-09-09T02:33:26;3.2;;;1.0;;
26824;SDS011;14402;48.178;11.566;2022-09-09T02:33:55;3.2;;;1.0;;
26824;SDS011;14402;48.178;11.566;2022-09-09T02:34:25;2.6;;;0.9;;
26824;SDS011;14402;48.178;11.566;2022-09-09T02:34:56;2.0;;;0.8;;
26824;SDS011;14402;48.178;11.566;2022-09-09T02:35:25;2.0;;;0.8;;
26824;SDS011;14402;48.178;11.566;2022-09-09T02:35:55;2.0;;;0.8;;
26824;SDS011;14402;48.178;11.566;2022-09-09T02:36:26;2.5;;;0.9;;
26824;SDS011;14402;48.178;11.566;2022-09-09T02:36:55;3.1;;;1.0;;
26824;SDS011;14402;48.178;11.566;2022-09-09T02:37:27;3.1;;;1.0;;
26824;SDS011;14402;48.178;11.566;2022-09-09T02:37:56;3.1;;;1.0;;
26824;SDS011;14402;48.178;11.566;2022-09-09T02:38:26;2.4;;;0.9;;
26824;SDS011;14402;48.178;11.566;2022-09-09T02:38:56;1.7;;;0.7;;
26824;SDS011;14402;48.178;11.566;2022-09-09T02:39:26;1.7;;;0.7;;
26824;SDS011;14402;48.178;11.566;2022-09-09T02:39:56;1.7;;;0.7;;
26824;SDS011;14402;48.178;11.566;2022-09-09T02:40:26;1.9;;;0.8;;
26824;SDS011;14402;48.178;11.566;2022-09-09T02:40:56;2.0;;;0.8;;
26824;SDS011;14402;48.178;11.566;2022-09-09T02:41:27;2.0;;;0.8;;
26824;SDS011;14402;48.178;11.566;2022-09-09T02:41:56;2.0;;;0.8;;
26824;SDS011;14402;48.178;11.566;2022-09-09T02:42:26;1.8;;;0.8;;
26824;SDS011;14402;48.178;11.566;2022-09-09T02:42:56;1.5;;;0.8;;
26824;SDS011;14402;48.178;11.566;2022-09-09T02:43:30;1.5;;;0.8;;
26824;SDS011;14402;48.178;11.566;2022-09-09T02:43:56;1.5;;;0.8;;
26824;SDS011;14402;48.178;11.566;2022-09-09T02:44:26;1.3;;;0.8;;
26824;SDS011;14402;48.178;11.566;2022-09-09T02:44:57;1.1;;;0.7;;
26824;SDS011;14402;48.178;11.566;2022-09-09T02:45:28;1.1;;;0.7;;
26824;SDS011;14402;48.178;11.566;2022-09-09T02:45:58;1.1;;;0.7;;
26824;SDS011;14402;48.178;11.566;2022-09-09T02:46:30;1.5;;;0.8;;
26824;SDS011;14402;48.178;11.566;2022-09-09T02:47:01;2.0;;;0.9;;
26824;SDS011;14402;48.178;11.566;2022-09-09T02:47:29;2.0;;;0.9;;
26824;SDS011;14402;48.178;11.566;2022-09-09T02:47:59;2.0;;;0.9;;
26824;SDS011;14402;48.178;11.566;2022-09-09T02:48:29;2.2;;;0.9;;
26824;SDS011;14402;48.178;11.566;2022-09-09T02:48:59;2.5;;;0.9;;
26824;SDS011;14402;48.178;11.566;2022-09-09T02:49:28;2.5;;;0.9;;
26824;SDS011;14402;48.178;11.566;2022-09-09T02:50:00;2.5;;;0.9;;
26824;SDS011;14402;48.178;11.566;2022-09-09T02:50:29;2.1;;;0.8;;
26824;SDS011;14402;48.178;11.566;2022-09-09T02:50:59;1.7;;;0.7;;
26824;SDS011;14402;48.178;11.566;2022-09-09T02:51:30;1.7;;;0.7;;
26824;SDS011;14402;48.178;11.566;2022-09-09T02:52:00;1.7;;;0.7;;
26824;SDS011;14402;48.178;11.566;2022-09-09T02:52:30;1.8;;;0.7;;
26824;SDS011;14402;48.178;11.566;2022-09-09T02:53:01;1.9;;;0.7;;
26824;SDS011;14402;48.178;11.566;2022-09-09T02:53:30;1.9;;;0.7;;
26824;SDS011;14402;48.178;11.566;2022-09-09T02:53:59;1.9;;;0.7;;
26824;SDS011;14402;48.178;11.566;2022-09-09T02:54:29;2.0;;;0.8;;
26824;SDS011;14402;48.178;11.566;2022-09-09T02:55:01;2.0;;;0.8;;
26824;SDS011;14402;48.178;11.566;2022-09-09T02:55:31;2.0;;;0.8;;
26824;SDS011;14402;48.178;11.566;2022-09-09T02:56:00;2.0;;;0.8;;
26824;SDS011;14402;48.178;11.566;2022-09-09T02:56:29;2.2;;;0.8;;
26824;SDS011;14402;48.178;11.566;2022-09-09T02:57:01;2.3;;;0.7;;
26824;SDS011;14402;48.178;11.566;2022-09-09T02:57:29;2.3;;;0.7;;
26824;SDS011;14402;48.178;11.566;2022-09-09T02:57:59;2.3;;;0.7;;
26824;SDS011;14402;48.178;11.566;2022-09-09T02:58:29;1.9;;;0.8;;
26824;SDS011;14402;48.178;11.566;2022-09-09T02:58:59;1.5;;;0.8;;
26824;SDS011;14402;48.178;11.566;2022-09-09T02:59:29;1.5;;;0.8;;
26824;SDS011;14402;48.178;11.566;2022-09-09T02:59:59;1.5;;;0.8;;
26824;SDS011;14402;48.178;11.566;2022-09-09T03:00:30;1.9;;;0.8;;
26824;SDS011;14402;48.178;11.566;2022-09-09T03:01:00;2.2;;;0.7;;
26824;SDS011;14402;48.178;11.566;2022-09-09T03:01:30;2.2;;;0.7;;
26824;SDS011;14402;48.178;11.566;2022-09-09T03:02:00;2.2;;;0.7;;
26824;SDS011;14402;48.178;11.566;2022-09-09T03:02:30;2.7;;;0.8;;
26824;SDS011;14402;48.178;11.566;2022-09-09T03:03:00;3.1;;;0.8;;
26824;SDS011;14402;48.178;11.566;2022-09-09T03:03:30;3.1;;;0.8;;
26824;SDS011;14402;48.178;11.566;2022-09-09T03:04:00;3.1;;;0.8;;